sensor_id;sensor_type;location;lat;lon;timestamp;P1;durP1;ratioP1;P2;durP2;ratioP2
42590;SDS011;28218;53.342;-6.216;2022-09-03T00:01:32;6.85;;;3.95;;
42590;SDS011;28218;53.342;-6.216;2022-09-03T00:04:06;6.13;;;3.83;;
42590;SDS011;28218;53.342;-6.216;2022-09-03T00:06:48;4.07;;;3.30;;
42590;SDS011;28218;53.342;-6.216;2022-09-03T00:09:24;6.45;;;3.90;;
42590;SDS011;28218;53.342;-6.216;2022-09-03T00:12:00;5.90;;;3.92;;
42590;SDS011;28218;53.342;-6.216;2022-09-03T00:14:36;8.60;;;4.20;;
42590;SDS011;28218;53.342;-6.216;2022-09-03T00:17:08;5.65;;;3.60;;
42590;SDS011;28218;53.342;-6.216;2022-09-03T00:19:43;5.05;;;3.95;;
42590;SDS011;28218;53.342;-6.216;2022-09-03T00:22:20;6.68;;;3.80;;
42590;SDS011;28218;53.342;-6.216;2022-09-03T00:24:53;7.25;;;3.83;;
42590;SDS011;28218;53.342;-6.216;2022-09-03T00:27:27;6.82;;;4.03;;
42590;SDS011;28218;53.342;-6.216;2022-09-03T00:30:00;10.95;;;4.00;;
42590;SDS011;28218;53.342;-6.216;2022-09-03T00:32:33;8.23;;;4.43;;
42590;SDS011;28218;53.342;-6.216;2022-09-03T00:35:08;8.48;;;4.70;;
42590;SDS011;28218;53.342;-6.216;2022-09-03T00:37:42;12.48;;;3.72;;
42590;SDS011;28218;53.342;-6.216;2022-09-03T00:40:17;11.32;;;5.72;;
42590;SDS011;28218;53.342;-6.216;2022-09-03T00:43:01;12.80;;;6.05;;
42590;SDS011;28218;53.342;-6.216;2022-09-03T00:45:41;10.98;;;5.72;;
42590;SDS011;28218;53.342;-6.216;2022-09-03T00:48:15;8.50;;;4.72;;
42590;SDS011;28218;53.342;-6.216;2022-09-03T00:51:07;9.98;;;4.97;;
42590;SDS011;28218;53.342;-6.216;2022-09-03T00:53:55;7.68;;;4.57;;
42590;SDS011;28218;53.342;-6.216;2022-09-03T00:56:32;7.88;;;4.15;;
42590;SDS011;28218;53.342;-6.216;2022-09-03T01:02:06;5.40;;;3.72;;
42590;SDS011;28218;53.342;-6.216;2022-09-03T01:04:48;6.95;;;4.88;;
42590;SDS011;28218;53.342;-6.216;2022-09-03T01:07:27;6.28;;;3.88;;
42590;SDS011;28218;53.342;-6.216;2022-09-03T01:10:07;5.80;;;3.95;;
42590;SDS011;28218;53.342;-6.216;2022-09-03T01:12:46;6.00;;;3.78;;
42590;SDS011;28218;53.342;-6.216;2022-09-03T01:15:21;6.53;;;3.42;;
42590;SDS011;28218;53.342;-6.216;2022-09-03T01:18:03;6.72;;;4.30;;
42590;SDS011;28218;53.342;-6.216;2022-09-03T01:20:45;7.22;;;4.30;;
42590;SDS011;28218;53.342;-6.216;2022-09-03T01:26:29;10.07;;;5.55;;
42590;SDS011;28218;53.342;-6.216;2022-09-03T01:29:11;14.77;;;6.80;;
42590;SDS011;28218;53.342;-6.216;2022-09-03T01:31:49;11.02;;;6.03;;
42590;SDS011;28218;53.342;-6.216;2022-09-03T01:34:31;11.20;;;6.47;;
42590;SDS011;28218;53.342;-6.216;2022-09-03T01:37:10;12.43;;;6.72;;
42590;SDS011;28218;53.342;-6.216;2022-09-03T01:39:46;13.65;;;6.50;;
42590;SDS011;28218;53.342;-6.216;2022-09-03T01:42:30;10.10;;;5.30;;
42590;SDS011;28218;53.342;-6.216;2022-09-03T01:48:20;5.85;;;4.78;;
42590;SDS011;28218;53.342;-6.216;2022-09-03T01:51:02;5.45;;;3.55;;
42590;SDS011;28218;53.342;-6.216;2022-09-03T01:53:40;4.80;;;3.28;;
42590;SDS011;28218;53.342;-6.216;2022-09-03T01:56:32;4.78;;;3.17;;
42590;SDS011;28218;53.342;-6.216;2022-09-03T01:59:10;9.52;;;3.42;;
42590;SDS011;28218;53.342;-6.216;2022-09-03T02:01:51;7.70;;;2.90;;
42590;SDS011;28218;53.342;-6.216;2022-09-03T02:04:24;5.47;;;2.80;;
42590;SDS011;28218;53.342;-6.216;2022-09-03T02:06:55;7.07;;;3.10;;
42590;SDS011;28218;53.342;-6.216;2022-09-03T02:09:26;3.10;;;1.90;;
42590;SDS011;28218;53.342;-6.216;2022-09-03T02:11:58;4.65;;;2.15;;
42590;SDS011;28218;53.342;-6.216;2022-09-03T02:14:30;3.47;;;1.83;;
42590;SDS011;28218;53.342;-6.216;2022-09-03T02:17:02;4.65;;;1.60;;
42590;SDS011;28218;53.342;-6.216;2022-09-03T02:19:32;5.00;;;2.00;;
42590;SDS011;28218;53.342;-6.216;2022-09-03T02:22:03;3.20;;;1.40;;
42590;SDS011;28218;53.342;-6.216;2022-09-03T02:24:32;4.28;;;1.50;;
42590;SDS011;28218;53.342;-6.216;2022-09-03T02:27:00;4.45;;;1.80;;
42590;SDS011;28218;53.342;-6.216;2022-09-03T02:29:29;3.30;;;1.60;;
42590;SDS011;28218;53.342;-6.216;2022-09-03T02:31:57;2.58;;;1.42;;
42590;SDS011;28218;53.342;-6.216;2022-09-03T02:34:27;3.47;;;1.25;;
42590;SDS011;28218;53.342;-6.216;2022-09-03T02:36:56;6.97;;;1.65;;
42590;SDS011;28218;53.342;-6.216;2022-09-03T02:39:25;4.85;;;1.70;;
42590;SDS011;28218;53.342;-6.216;2022-09-03T02:41:54;2.85;;;1.73;;
42590;SDS011;28218;53.342;-6.216;2022-09-03T02:44:25;5.50;;;2.13;;
42590;SDS011;28218;53.342;-6.216;2022-09-03T02:46:57;3.90;;;1.50;;
42590;SDS011;28218;53.342;-6.216;2022-09-03T02:49:29;3.20;;;1.75;;
42590;SDS011;28218;53.342;-6.216;2022-09-03T02:51:59;6.65;;;1.65;;
42590;SDS011;28218;53.342;-6.216;2022-09-03T02:54:31;6.25;;;2.20;;
42590;SDS011;28218;53.342;-6.216;2022-09-03T02:57:02;5.90;;;2.10;;
42590;SDS011;28218;53.342;-6.216;2022-09-03T02:59:31;4.57;;;1.70;;
42590;SDS011;28218;53.342;-6.216;2022-09-03T03:02:00;5.15;;;1.67;;
42590;SDS011;28218;53.342;-6.216;2022-09-03T03:04:30;3.42;;;1.50;;
42590;SDS011;28218;53.342;-6.216;2022-09-03T03:06:59;5.10;;;2.00;;
42590;SDS011;28218;53.342;-6.216;2022-09-03T03:09:27;11.80;;;2.40;;
42590;SDS011;28218;53.342;-6.216;2022-09-03T03:11:55;4.72;;;2.08;;
42590;SDS011;28218;53.342;-6.216;2022-09-03T03:14:23;4.43;;;1.40;;
42590;SDS011;28218;53.342;-6.216;2022-09-03T03:16:52;7.22;;;1.63;;
42590;SDS011;28218;53.342;-6.216;2022-09-03T03:19:20;2.25;;;1.80;;
42590;SDS011;28218;53.342;-6.216;2022-09-03T03:21:50;2.75;;;1.50;;
42590;SDS011;28218;53.342;-6.216;2022-09-03T03:24:18;6.85;;;1.80;;
42590;SDS011;28218;53.342;-6.216;2022-09-03T03:26:46;6.00;;;2.10;;
42590;SDS011;28218;53.342;-6.216;2022-09-03T03:29:15;4.47;;;2.05;;
42590;SDS011;28218;53.342;-6.216;2022-09-03T03:31:44;1.73;;;1.45;;
42590;SDS011;28218;53.342;-6.216;2022-09-03T03:34:12;1.92;;;1.33;;
42590;SDS011;28218;53.342;-6.216;2022-09-03T03:36:40;4.53;;;1.77;;
42590;SDS011;28218;53.342;-6.216;2022-09-03T03:39:10;4.75;;;1.80;;
42590;SDS011;28218;53.342;-6.216;2022-09-03T03:41:38;1.50;;;1.40;;
42590;SDS011;28218;53.342;-6.216;2022-09-03T03:44:06;4.78;;;1.65;;
42590;SDS011;28218;53.342;-6.216;2022-09-03T03:46:35;3.15;;;1.85;;
42590;SDS011;28218;53.342;-6.216;2022-09-03T03:49:05;3.45;;;1.48;;
42590;SDS011;28218;53.342;-6.216;2022-09-03T03:51:36;2.45;;;1.40;;
42590;SDS011;28218;53.342;-6.216;2022-09-03T03:54:06;5.10;;;1.73;;
42590;SDS011;28218;53.342;-6.216;2022-09-03T03:56:36;3.97;;;1.55;;
42590;SDS011;28218;53.342;-6.216;2022-09-03T03:59:04;2.60;;;1.83;;
42590;SDS011;28218;53.342;-6.216;2022-09-03T04:01:32;2.50;;;1.33;;
42590;SDS011;28218;53.342;-6.216;2022-09-03T04:04:00;3.10;;;1.40;;
42590;SDS011;28218;53.342;-6.216;2022-09-03T04:06:31;3.28;;;1.88;;
42590;SDS011;28218;53.342;-6.216;2022-09-03T04:08:59;4.25;;;1.73;;
42590;SDS011;28218;53.342;-6.216;2022-09-03T04:11:27;5.43;;;2.40;;
42590;SDS011;28218;53.342;-6.216;2022-09-03T04:13:57;6.18;;;2.60;;
42590;SDS011;28218;53.342;-6.216;2022-09-03T04:16:25;14.05;;;7.43;;
42590;SDS011;28218;53.342;-6.216;2022-09-03T04:18:54;15.63;;;7.35;;
42590;SDS011;28218;53.342;-6.216;2022-09-03T04:21:24;21.88;;;9.60;;
42590;SDS011;28218;53.342;-6.216;2022-09-03T04:23:54;22.48;;;10.73;;
42590;SDS011;28218;53.342;-6.216;2022-09-03T04:26:24;18.95;;;10.50;;
42590;SDS011;28218;53.342;-6.216;2022-09-03T04:28:53;26.63;;;12.68;;
42590;SDS011;28218;53.342;-6.216;2022-09-03T04:31:24;30.02;;;15.73;;
42590;SDS011;28218;53.342;-6.216;2022-09-03T04:33:52;29.05;;;15.63;;
42590;SDS011;28218;53.342;-6.216;2022-09-03T04:36:22;35.08;;;16.58;;
42590;SDS011;28218;53.342;-6.216;2022-09-03T04:38:51;33.33;;;17.67;;
42590;SDS011;28218;53.342;-6.216;2022-09-03T04:41:22;29.52;;;16.42;;
42590;SDS011;28218;53.342;-6.216;2022-09-03T04:43:51;25.67;;;15.93;;
42590;SDS011;28218;53.342;-6.216;2022-09-03T04:46:21;26.90;;;13.50;;
42590;SDS011;28218;53.342;-6.216;2022-09-03T04:48:53;11.93;;;7.20;;
42590;SDS011;28218;53.342;-6.216;2022-09-03T04:51:23;13.05;;;6.65;;
42590;SDS011;28218;53.342;-6.216;2022-09-03T04:53:54;15.05;;;7.43;;
42590;SDS011;28218;53.342;-6.216;2022-09-03T04:56:24;18.05;;;9.45;;
42590;SDS011;28218;53.342;-6.216;2022-09-03T04:58:53;10.77;;;6.03;;
42590;SDS011;28218;53.342;-6.216;2022-09-03T05:01:23;5.72;;;3.63;;
42590;SDS011;28218;53.342;-6.216;2022-09-03T05:03:54;7.78;;;4.55;;
42590;SDS011;28218;53.342;-6.216;2022-09-03T05:06:23;6.47;;;3.83;;
42590;SDS011;28218;53.342;-6.216;2022-09-03T05:08:52;4.13;;;2.30;;
42590;SDS011;28218;53.342;-6.216;2022-09-03T05:11:21;3.22;;;1.85;;
42590;SDS011;28218;53.342;-6.216;2022-09-03T05:13:51;2.38;;;1.60;;
42590;SDS011;28218;53.342;-6.216;2022-09-03T05:16:21;4.97;;;1.98;;
42590;SDS011;28218;53.342;-6.216;2022-09-03T05:18:51;3.15;;;1.80;;
42590;SDS011;28218;53.342;-6.216;2022-09-03T05:21:21;2.75;;;2.05;;
42590;SDS011;28218;53.342;-6.216;2022-09-03T05:23:50;1.90;;;1.70;;
42590;SDS011;28218;53.342;-6.216;2022-09-03T05:26:20;2.67;;;1.50;;
42590;SDS011;28218;53.342;-6.216;2022-09-03T05:28:52;2.95;;;1.88;;
42590;SDS011;28218;53.342;-6.216;2022-09-03T05:31:21;1.92;;;1.40;;
42590;SDS011;28218;53.342;-6.216;2022-09-03T05:33:52;2.28;;;1.45;;
42590;SDS011;28218;53.342;-6.216;2022-09-03T05:36:26;3.53;;;2.38;;
42590;SDS011;28218;53.342;-6.216;2022-09-03T05:38:56;8.13;;;4.38;;
42590;SDS011;28218;53.342;-6.216;2022-09-03T05:41:25;2.35;;;1.60;;
42590;SDS011;28218;53.342;-6.216;2022-09-03T05:43:55;2.67;;;1.67;;
42590;SDS011;28218;53.342;-6.216;2022-09-03T05:46:26;8.05;;;2.00;;
42590;SDS011;28218;53.342;-6.216;2022-09-03T05:48:58;3.30;;;2.17;;
42590;SDS011;28218;53.342;-6.216;2022-09-03T05:51:29;3.45;;;2.28;;
42590;SDS011;28218;53.342;-6.216;2022-09-03T05:53:57;2.97;;;1.88;;
42590;SDS011;28218;53.342;-6.216;2022-09-03T05:56:26;5.15;;;2.22;;
42590;SDS011;28218;53.342;-6.216;2022-09-03T05:58:56;2.05;;;1.63;;
42590;SDS011;28218;53.342;-6.216;2022-09-03T06:01:28;4.38;;;2.00;;
42590;SDS011;28218;53.342;-6.216;2022-09-03T06:03:58;4.05;;;1.90;;
42590;SDS011;28218;53.342;-6.216;2022-09-03T06:06:30;2.72;;;2.08;;
42590;SDS011;28218;53.342;-6.216;2022-09-03T06:09:01;3.22;;;1.80;;
42590;SDS011;28218;53.342;-6.216;2022-09-03T06:11:32;2.28;;;1.30;;
42590;SDS011;28218;53.342;-6.216;2022-09-03T06:14:03;3.40;;;1.83;;
42590;SDS011;28218;53.342;-6.216;2022-09-03T06:16:34;2.33;;;1.67;;
42590;SDS011;28218;53.342;-6.216;2022-09-03T06:19:04;2.22;;;1.08;;
42590;SDS011;28218;53.342;-6.216;2022-09-03T06:21:37;2.25;;;0.98;;
42590;SDS011;28218;53.342;-6.216;2022-09-03T06:24:08;2.28;;;1.00;;
42590;SDS011;28218;53.342;-6.216;2022-09-03T06:26:37;0.95;;;0.80;;
42590;SDS011;28218;53.342;-6.216;2022-09-03T06:29:08;1.45;;;0.75;;
42590;SDS011;28218;53.342;-6.216;2022-09-03T06:31:37;1.45;;;0.80;;
42590;SDS011;28218;53.342;-6.216;2022-09-03T06:34:06;1.85;;;0.80;;
42590;SDS011;28218;53.342;-6.216;2022-09-03T06:36:34;2.85;;;0.70;;
42590;SDS011;28218;53.342;-6.216;2022-09-03T06:39:04;1.70;;;0.80;;
42590;SDS011;28218;53.342;-6.216;2022-09-03T06:41:32;3.15;;;0.93;;
42590;SDS011;28218;53.342;-6.216;2022-09-03T06:44:02;1.60;;;0.73;;
42590;SDS011;28218;53.342;-6.216;2022-09-03T06:46:32;0.70;;;0.60;;
42590;SDS011;28218;53.342;-6.216;2022-09-03T06:49:01;1.00;;;0.90;;
42590;SDS011;28218;53.342;-6.216;2022-09-03T06:51:30;2.40;;;0.77;;
42590;SDS011;28218;53.342;-6.216;2022-09-03T06:54:02;0.95;;;0.77;;
42590;SDS011;28218;53.342;-6.216;2022-09-03T06:56:31;1.33;;;0.80;;
42590;SDS011;28218;53.342;-6.216;2022-09-03T06:59:06;2.20;;;0.70;;
42590;SDS011;28218;53.342;-6.216;2022-09-03T07:01:35;0.80;;;0.70;;
42590;SDS011;28218;53.342;-6.216;2022-09-03T07:04:10;1.75;;;1.02;;
42590;SDS011;28218;53.342;-6.216;2022-09-03T07:06:41;1.23;;;0.80;;
42590;SDS011;28218;53.342;-6.216;2022-09-03T07:09:14;0.80;;;0.80;;
42590;SDS011;28218;53.342;-6.216;2022-09-03T07:11:44;1.08;;;0.90;;
42590;SDS011;28218;53.342;-6.216;2022-09-03T07:14:14;1.13;;;0.90;;
42590;SDS011;28218;53.342;-6.216;2022-09-03T07:16:43;2.20;;;0.80;;
42590;SDS011;28218;53.342;-6.216;2022-09-03T07:19:12;0.88;;;0.80;;
42590;SDS011;28218;53.342;-6.216;2022-09-03T07:21:41;0.80;;;0.80;;
42590;SDS011;28218;53.342;-6.216;2022-09-03T07:24:17;2.05;;;1.42;;
42590;SDS011;28218;53.342;-6.216;2022-09-03T07:26:48;1.60;;;1.50;;
42590;SDS011;28218;53.342;-6.216;2022-09-03T07:29:16;1.83;;;1.17;;
42590;SDS011;28218;53.342;-6.216;2022-09-03T07:31:47;1.20;;;1.10;;
42590;SDS011;28218;53.342;-6.216;2022-09-03T07:34:18;1.45;;;1.35;;
42590;SDS011;28218;53.342;-6.216;2022-09-03T07:36:52;1.40;;;0.80;;
42590;SDS011;28218;53.342;-6.216;2022-09-03T07:39:22;1.52;;;0.90;;
42590;SDS011;28218;53.342;-6.216;2022-09-03T07:41:50;0.90;;;0.70;;
42590;SDS011;28218;53.342;-6.216;2022-09-03T07:44:19;0.82;;;0.73;;
42590;SDS011;28218;53.342;-6.216;2022-09-03T07:46:48;2.42;;;0.85;;
42590;SDS011;28218;53.342;-6.216;2022-09-03T07:49:18;5.07;;;0.98;;
42590;SDS011;28218;53.342;-6.216;2022-09-03T07:51:47;2.10;;;0.85;;
42590;SDS011;28218;53.342;-6.216;2022-09-03T07:54:20;1.27;;;0.90;;
42590;SDS011;28218;53.342;-6.216;2022-09-03T07:56:51;0.93;;;0.90;;
42590;SDS011;28218;53.342;-6.216;2022-09-03T07:59:21;0.57;;;0.57;;
42590;SDS011;28218;53.342;-6.216;2022-09-03T08:01:50;1.13;;;0.70;;
42590;SDS011;28218;53.342;-6.216;2022-09-03T08:04:18;1.00;;;0.73;;
42590;SDS011;28218;53.342;-6.216;2022-09-03T08:06:47;0.70;;;0.70;;
42590;SDS011;28218;53.342;-6.216;2022-09-03T08:09:22;3.30;;;0.80;;
42590;SDS011;28218;53.342;-6.216;2022-09-03T08:11:50;1.27;;;0.73;;
42590;SDS011;28218;53.342;-6.216;2022-09-03T08:14:19;1.23;;;0.50;;
42590;SDS011;28218;53.342;-6.216;2022-09-03T08:16:47;1.13;;;0.80;;
42590;SDS011;28218;53.342;-6.216;2022-09-03T08:19:16;2.47;;;0.88;;
42590;SDS011;28218;53.342;-6.216;2022-09-03T08:21:45;2.92;;;1.08;;
42590;SDS011;28218;53.342;-6.216;2022-09-03T08:24:14;2.15;;;0.70;;
42590;SDS011;28218;53.342;-6.216;2022-09-03T08:26:47;2.70;;;0.90;;
42590;SDS011;28218;53.342;-6.216;2022-09-03T08:29:17;1.05;;;0.95;;
42590;SDS011;28218;53.342;-6.216;2022-09-03T08:31:46;1.95;;;0.70;;
42590;SDS011;28218;53.342;-6.216;2022-09-03T08:34:15;0.80;;;0.80;;
42590;SDS011;28218;53.342;-6.216;2022-09-03T08:36:43;1.75;;;0.68;;
42590;SDS011;28218;53.342;-6.216;2022-09-03T08:39:13;1.05;;;0.60;;
42590;SDS011;28218;53.342;-6.216;2022-09-03T08:41:54;1.27;;;0.77;;
42590;SDS011;28218;53.342;-6.216;2022-09-03T08:44:37;1.95;;;0.65;;
42590;SDS011;28218;53.342;-6.216;2022-09-03T08:47:13;1.55;;;0.70;;
42590;SDS011;28218;53.342;-6.216;2022-09-03T08:49:49;2.70;;;1.10;;
42590;SDS011;28218;53.342;-6.216;2022-09-03T08:52:23;0.95;;;0.70;;
42590;SDS011;28218;53.342;-6.216;2022-09-03T08:54:57;1.10;;;0.50;;
42590;SDS011;28218;53.342;-6.216;2022-09-03T08:57:35;0.63;;;0.60;;
42590;SDS011;28218;53.342;-6.216;2022-09-03T09:00:10;1.55;;;0.60;;
42590;SDS011;28218;53.342;-6.216;2022-09-03T09:02:42;3.72;;;0.88;;
42590;SDS011;28218;53.342;-6.216;2022-09-03T09:05:27;1.92;;;0.80;;
42590;SDS011;28218;53.342;-6.216;2022-09-03T09:08:07;0.60;;;0.60;;
42590;SDS011;28218;53.342;-6.216;2022-09-03T09:10:46;3.63;;;0.70;;
42590;SDS011;28218;53.342;-6.216;2022-09-03T09:13:24;1.17;;;0.68;;
42590;SDS011;28218;53.342;-6.216;2022-09-03T09:15:58;1.25;;;1.02;;
42590;SDS011;28218;53.342;-6.216;2022-09-03T09:18:36;1.20;;;1.10;;
42590;SDS011;28218;53.342;-6.216;2022-09-03T09:21:17;0.95;;;0.80;;
42590;SDS011;28218;53.342;-6.216;2022-09-03T09:23:53;3.22;;;0.95;;
42590;SDS011;28218;53.342;-6.216;2022-09-03T09:26:24;3.45;;;0.90;;
42590;SDS011;28218;53.342;-6.216;2022-09-03T09:28:56;0.60;;;0.60;;
42590;SDS011;28218;53.342;-6.216;2022-09-03T09:31:30;1.40;;;0.70;;
42590;SDS011;28218;53.342;-6.216;2022-09-03T09:34:00;2.50;;;0.88;;
42590;SDS011;28218;53.342;-6.216;2022-09-03T09:36:33;1.40;;;1.00;;
42590;SDS011;28218;53.342;-6.216;2022-09-03T09:39:10;1.55;;;0.68;;
42590;SDS011;28218;53.342;-6.216;2022-09-03T09:41:41;2.45;;;0.90;;
42590;SDS011;28218;53.342;-6.216;2022-09-03T09:44:19;0.77;;;0.60;;
42590;SDS011;28218;53.342;-6.216;2022-09-03T09:46:47;0.90;;;0.60;;
42590;SDS011;28218;53.342;-6.216;2022-09-03T09:49:28;1.15;;;0.70;;
42590;SDS011;28218;53.342;-6.216;2022-09-03T09:52:00;2.00;;;0.88;;
42590;SDS011;28218;53.342;-6.216;2022-09-03T09:54:38;0.70;;;0.70;;
42590;SDS011;28218;53.342;-6.216;2022-09-03T09:57:07;0.73;;;0.73;;
42590;SDS011;28218;53.342;-6.216;2022-09-03T09:59:44;0.65;;;0.60;;
42590;SDS011;28218;53.342;-6.216;2022-09-03T10:02:16;1.48;;;0.85;;
42590;SDS011;28218;53.342;-6.216;2022-09-03T10:04:53;1.60;;;0.95;;
42590;SDS011;28218;53.342;-6.216;2022-09-03T10:07:28;1.50;;;1.00;;
42590;SDS011;28218;53.342;-6.216;2022-09-03T10:10:03;1.17;;;0.93;;
42590;SDS011;28218;53.342;-6.216;2022-09-03T10:12:35;2.53;;;0.90;;
42590;SDS011;28218;53.342;-6.216;2022-09-03T10:15:13;2.08;;;0.75;;
42590;SDS011;28218;53.342;-6.216;2022-09-03T10:17:55;1.63;;;1.52;;
42590;SDS011;28218;53.342;-6.216;2022-09-03T10:20:30;1.42;;;1.20;;
42590;SDS011;28218;53.342;-6.216;2022-09-03T10:23:08;6.50;;;1.00;;
42590;SDS011;28218;53.342;-6.216;2022-09-03T10:25:49;1.95;;;1.27;;
42590;SDS011;28218;53.342;-6.216;2022-09-03T10:28:26;1.23;;;1.13;;
42590;SDS011;28218;53.342;-6.216;2022-09-03T10:31:09;1.58;;;1.05;;
42590;SDS011;28218;53.342;-6.216;2022-09-03T10:33:48;2.13;;;1.30;;
42590;SDS011;28218;53.342;-6.216;2022-09-03T10:36:23;2.28;;;0.90;;
42590;SDS011;28218;53.342;-6.216;2022-09-03T10:38:57;2.63;;;1.55;;
42590;SDS011;28218;53.342;-6.216;2022-09-03T10:41:36;1.33;;;1.10;;
42590;SDS011;28218;53.342;-6.216;2022-09-03T10:47:27;0.60;;;0.60;;
42590;SDS011;28218;53.342;-6.216;2022-09-03T10:50:16;1.30;;;1.10;;
42590;SDS011;28218;53.342;-6.216;2022-09-03T10:52:55;3.20;;;1.25;;
42590;SDS011;28218;53.342;-6.216;2022-09-03T10:55:39;1.92;;;1.02;;
42590;SDS011;28218;53.342;-6.216;2022-09-03T10:58:23;2.95;;;0.98;;
42590;SDS011;28218;53.342;-6.216;2022-09-03T11:01:14;0.95;;;0.82;;
42590;SDS011;28218;53.342;-6.216;2022-09-03T11:03:52;6.43;;;1.00;;
42590;SDS011;28218;53.342;-6.216;2022-09-03T11:06:34;1.08;;;0.80;;
42590;SDS011;28218;53.342;-6.216;2022-09-03T11:09:11;1.40;;;1.15;;
42590;SDS011;28218;53.342;-6.216;2022-09-03T11:11:46;0.75;;;0.75;;
42590;SDS011;28218;53.342;-6.216;2022-09-03T11:14:22;4.43;;;0.93;;
42590;SDS011;28218;53.342;-6.216;2022-09-03T11:16:58;2.15;;;1.00;;
42590;SDS011;28218;53.342;-6.216;2022-09-03T11:19:35;2.60;;;0.95;;
42590;SDS011;28218;53.342;-6.216;2022-09-03T11:22:09;2.10;;;0.70;;
42590;SDS011;28218;53.342;-6.216;2022-09-03T11:24:42;1.63;;;0.80;;
42590;SDS011;28218;53.342;-6.216;2022-09-03T11:27:18;0.57;;;0.50;;
42590;SDS011;28218;53.342;-6.216;2022-09-03T11:35:13;1.20;;;0.93;;
42590;SDS011;28218;53.342;-6.216;2022-09-03T11:37:48;0.75;;;0.60;;
42590;SDS011;28218;53.342;-6.216;2022-09-03T11:40:27;2.08;;;0.80;;
42590;SDS011;28218;53.342;-6.216;2022-09-03T11:43:11;1.60;;;0.90;;
42590;SDS011;28218;53.342;-6.216;2022-09-03T11:46:00;1.73;;;1.10;;
42590;SDS011;28218;53.342;-6.216;2022-09-03T11:48:35;2.35;;;1.05;;
42590;SDS011;28218;53.342;-6.216;2022-09-03T11:51:17;1.50;;;1.15;;
42590;SDS011;28218;53.342;-6.216;2022-09-03T11:54:02;4.63;;;0.90;;
42590;SDS011;28218;53.342;-6.216;2022-09-03T11:56:34;3.83;;;1.58;;
42590;SDS011;28218;53.342;-6.216;2022-09-03T11:59:05;3.53;;;1.30;;
42590;SDS011;28218;53.342;-6.216;2022-09-03T12:01:46;1.58;;;1.13;;
42590;SDS011;28218;53.342;-6.216;2022-09-03T12:04:19;10.73;;;1.42;;
42590;SDS011;28218;53.342;-6.216;2022-09-03T12:09:59;4.65;;;1.60;;
42590;SDS011;28218;53.342;-6.216;2022-09-03T12:12:44;2.33;;;1.60;;
42590;SDS011;28218;53.342;-6.216;2022-09-03T12:15:30;2.03;;;1.80;;
42590;SDS011;28218;53.342;-6.216;2022-09-03T12:18:13;3.80;;;1.83;;
42590;SDS011;28218;53.342;-6.216;2022-09-03T12:20:46;6.90;;;1.98;;
42590;SDS011;28218;53.342;-6.216;2022-09-03T12:23:28;2.38;;;1.80;;
42590;SDS011;28218;53.342;-6.216;2022-09-03T12:26:00;5.72;;;2.03;;
42590;SDS011;28218;53.342;-6.216;2022-09-03T12:28:33;4.07;;;1.90;;
42590;SDS011;28218;53.342;-6.216;2022-09-03T12:31:13;3.33;;;2.42;;
42590;SDS011;28218;53.342;-6.216;2022-09-03T12:33:48;4.85;;;2.20;;
42590;SDS011;28218;53.342;-6.216;2022-09-03T12:36:19;3.55;;;2.15;;
42590;SDS011;28218;53.342;-6.216;2022-09-03T12:38:50;5.00;;;2.20;;
42590;SDS011;28218;53.342;-6.216;2022-09-03T12:41:38;7.20;;;2.10;;
42590;SDS011;28218;53.342;-6.216;2022-09-03T12:44:23;7.38;;;2.05;;
42590;SDS011;28218;53.342;-6.216;2022-09-03T12:47:01;8.00;;;2.50;;
42590;SDS011;28218;53.342;-6.216;2022-09-03T12:49:52;14.65;;;3.58;;
42590;SDS011;28218;53.342;-6.216;2022-09-03T12:52:26;8.50;;;2.95;;
42590;SDS011;28218;53.342;-6.216;2022-09-03T12:55:00;15.13;;;3.25;;
42590;SDS011;28218;53.342;-6.216;2022-09-03T12:57:32;8.23;;;2.60;;
42590;SDS011;28218;53.342;-6.216;2022-09-03T13:00:05;4.90;;;2.78;;
42590;SDS011;28218;53.342;-6.216;2022-09-03T13:02:36;10.10;;;2.83;;
42590;SDS011;28218;53.342;-6.216;2022-09-03T13:05:10;8.82;;;2.67;;
42590;SDS011;28218;53.342;-6.216;2022-09-03T13:07:44;12.50;;;2.95;;
42590;SDS011;28218;53.342;-6.216;2022-09-03T13:10:22;23.13;;;3.65;;
42590;SDS011;28218;53.342;-6.216;2022-09-03T13:12:57;12.10;;;3.13;;
42590;SDS011;28218;53.342;-6.216;2022-09-03T13:15:28;14.52;;;4.13;;
42590;SDS011;28218;53.342;-6.216;2022-09-03T13:18:01;9.50;;;3.78;;
42590;SDS011;28218;53.342;-6.216;2022-09-03T13:20:46;11.75;;;3.60;;
42590;SDS011;28218;53.342;-6.216;2022-09-03T13:23:35;8.83;;;3.47;;
42590;SDS011;28218;53.342;-6.216;2022-09-03T13:26:20;10.02;;;3.38;;
42590;SDS011;28218;53.342;-6.216;2022-09-03T13:29:00;15.32;;;2.75;;
42590;SDS011;28218;53.342;-6.216;2022-09-03T13:31:44;15.60;;;3.28;;
42590;SDS011;28218;53.342;-6.216;2022-09-03T13:34:19;16.85;;;3.95;;
42590;SDS011;28218;53.342;-6.216;2022-09-03T13:36:54;11.95;;;3.47;;
42590;SDS011;28218;53.342;-6.216;2022-09-03T13:39:27;18.88;;;3.33;;
42590;SDS011;28218;53.342;-6.216;2022-09-03T13:42:04;11.82;;;3.20;;
42590;SDS011;28218;53.342;-6.216;2022-09-03T13:44:40;22.55;;;3.67;;
42590;SDS011;28218;53.342;-6.216;2022-09-03T13:47:17;17.92;;;3.50;;
42590;SDS011;28218;53.342;-6.216;2022-09-03T13:49:56;14.48;;;3.50;;
42590;SDS011;28218;53.342;-6.216;2022-09-03T13:52:49;11.73;;;3.13;;
42590;SDS011;28218;53.342;-6.216;2022-09-03T13:55:27;7.30;;;2.97;;
42590;SDS011;28218;53.342;-6.216;2022-09-03T13:58:02;10.68;;;2.72;;
42590;SDS011;28218;53.342;-6.216;2022-09-03T14:00:36;11.90;;;2.67;;
42590;SDS011;28218;53.342;-6.216;2022-09-03T14:03:10;11.55;;;3.05;;
42590;SDS011;28218;53.342;-6.216;2022-09-03T14:05:53;10.60;;;3.33;;
42590;SDS011;28218;53.342;-6.216;2022-09-03T14:08:33;17.30;;;2.95;;
42590;SDS011;28218;53.342;-6.216;2022-09-03T14:11:22;17.00;;;3.03;;
42590;SDS011;28218;53.342;-6.216;2022-09-03T14:14:01;15.35;;;3.30;;
42590;SDS011;28218;53.342;-6.216;2022-09-03T14:16:41;16.35;;;2.97;;
42590;SDS011;28218;53.342;-6.216;2022-09-03T14:19:19;13.10;;;3.80;;
42590;SDS011;28218;53.342;-6.216;2022-09-03T14:21:55;15.02;;;4.00;;
42590;SDS011;28218;53.342;-6.216;2022-09-03T14:24:30;16.73;;;2.92;;
42590;SDS011;28218;53.342;-6.216;2022-09-03T14:27:07;12.85;;;4.20;;
42590;SDS011;28218;53.342;-6.216;2022-09-03T14:29:37;15.65;;;4.32;;
42590;SDS011;28218;53.342;-6.216;2022-09-03T14:32:27;14.73;;;2.95;;
42590;SDS011;28218;53.342;-6.216;2022-09-03T14:35:11;14.32;;;3.17;;
42590;SDS011;28218;53.342;-6.216;2022-09-03T14:37:50;16.10;;;3.38;;
42590;SDS011;28218;53.342;-6.216;2022-09-03T14:43:23;28.00;;;4.30;;
42590;SDS011;28218;53.342;-6.216;2022-09-03T14:46:08;26.63;;;5.05;;
42590;SDS011;28218;53.342;-6.216;2022-09-03T14:48:59;13.23;;;4.10;;
42590;SDS011;28218;53.342;-6.216;2022-09-03T14:51:43;20.80;;;4.05;;
42590;SDS011;28218;53.342;-6.216;2022-09-03T14:54:37;19.50;;;5.53;;
42590;SDS011;28218;53.342;-6.216;2022-09-03T14:57:33;23.23;;;4.45;;
42590;SDS011;28218;53.342;-6.216;2022-09-03T15:00:13;18.17;;;4.90;;
42590;SDS011;28218;53.342;-6.216;2022-09-03T15:02:49;15.88;;;4.50;;
42590;SDS011;28218;53.342;-6.216;2022-09-03T15:05:51;18.70;;;3.33;;
42590;SDS011;28218;53.342;-6.216;2022-09-03T15:08:43;20.50;;;4.05;;
42590;SDS011;28218;53.342;-6.216;2022-09-03T15:11:33;14.10;;;3.45;;
42590;SDS011;28218;53.342;-6.216;2022-09-03T15:14:12;10.98;;;2.63;;
42590;SDS011;28218;53.342;-6.216;2022-09-03T15:16:47;12.95;;;2.13;;
42590;SDS011;28218;53.342;-6.216;2022-09-03T15:19:38;14.50;;;2.38;;
42590;SDS011;28218;53.342;-6.216;2022-09-03T15:22:21;9.02;;;2.75;;
42590;SDS011;28218;53.342;-6.216;2022-09-03T15:25:04;17.80;;;2.28;;
42590;SDS011;28218;53.342;-6.216;2022-09-03T15:27:45;11.45;;;1.42;;
42590;SDS011;28218;53.342;-6.216;2022-09-03T15:30:23;7.43;;;1.02;;
42590;SDS011;28218;53.342;-6.216;2022-09-03T15:33:03;5.53;;;0.88;;
42590;SDS011;28218;53.342;-6.216;2022-09-03T15:35:43;4.45;;;0.80;;
42590;SDS011;28218;53.342;-6.216;2022-09-03T15:38:34;0.90;;;0.55;;